createdAt,value
2018-12-02T00:02:59.868Z,10.07
2018-12-02T00:12:59.933Z,10.10
2018-12-02T00:22:59.930Z,10.09
2018-12-02T00:33:00.895Z,9.97
2018-12-02T00:42:59.943Z,9.94
2018-12-02T00:52:59.885Z,10.08
2018-12-02T01:02:59.978Z,10.21
2018-12-02T01:12:59.862Z,10.25
2018-12-02T01:22:59.910Z,10.26
2018-12-02T01:32:59.985Z,10.29
2018-12-02T01:42:59.841Z,10.19
2018-12-02T01:52:59.938Z,9.62
2018-12-02T02:02:59.930Z,9.43
2018-12-02T02:13:00.599Z,9.37
2018-12-02T02:22:59.840Z,9.25
2018-12-02T02:32:59.937Z,9.20
2018-12-02T02:42:59.896Z,9.14
2018-12-02T02:52:59.961Z,9.10
2018-12-02T03:02:59.875Z,8.97
2018-12-02T03:12:59.923Z,8.98
2018-12-02T03:22:59.916Z,9.06
2018-12-02T03:32:59.880Z,9.11
2018-12-02T03:42:59.912Z,9.16
2018-12-02T03:52:59.891Z,9.31
2018-12-02T04:02:59.924Z,9.33
2018-12-02T04:12:59.910Z,9.41
2018-12-02T04:22:59.873Z,9.53
2018-12-02T04:32:59.822Z,9.53
2018-12-02T04:42:59.839Z,9.60
2018-12-02T04:52:59.868Z,9.61
2018-12-02T05:02:59.829Z,9.77
2018-12-02T05:12:59.816Z,9.81
2018-12-02T05:22:59.921Z,9.86
2018-12-02T05:32:59.821Z,9.90
2018-12-02T05:42:59.881Z,10.11
2018-12-02T05:52:59.807Z,10.17
2018-12-02T06:03:02.219Z,10.05
2018-12-02T06:12:59.838Z,10.13
2018-12-02T06:22:59.900Z,10.03
2018-12-02T06:32:59.872Z,10.02
2018-12-02T06:42:59.850Z,10.09
2018-12-02T06:52:59.841Z,10.12
2018-12-02T07:02:59.812Z,10.26
2018-12-02T07:12:59.870Z,10.29
2018-12-02T07:22:59.836Z,10.47
2018-12-02T07:32:59.777Z,10.76
2018-12-02T07:42:59.838Z,10.82
2018-12-02T07:52:59.849Z,10.79
2018-12-02T08:02:59.832Z,10.75
2018-12-02T08:12:59.789Z,10.97
2018-12-02T08:22:59.851Z,11.10
2018-12-02T08:32:59.848Z,11.32
2018-12-02T08:42:59.801Z,11.56
2018-12-02T08:52:59.868Z,11.54
2018-12-02T09:02:59.821Z,11.49
2018-12-02T09:12:59.875Z,11.68
2018-12-02T09:23:00.674Z,11.86
2018-12-02T09:32:59.842Z,11.90
2018-12-02T09:42:59.903Z,12.01
2018-12-02T09:52:59.815Z,12.19
2018-12-02T10:02:59.794Z,12.20
2018-12-02T10:12:59.890Z,12.16
2018-12-02T10:22:59.902Z,12.23
2018-12-02T10:32:59.825Z,12.24
2018-12-02T10:43:00.054Z,12.28
2018-12-02T10:52:59.812Z,12.34
2018-12-02T11:02:59.774Z,12.51
2018-12-02T11:12:59.756Z,12.66
2018-12-02T11:22:59.845Z,12.90
2018-12-02T11:32:59.717Z,13.13
2018-12-02T11:42:59.917Z,13.35
2018-12-02T11:52:59.886Z,13.47
2018-12-02T12:02:59.882Z,13.63
2018-12-02T12:12:59.964Z,13.84
2018-12-02T12:22:59.766Z,13.85
2018-12-02T12:32:59.795Z,13.84
2018-12-02T12:42:59.822Z,13.82
2018-12-02T12:52:59.809Z,13.85
2018-12-02T13:03:00.128Z,13.90
2018-12-02T13:12:59.853Z,13.95
2018-12-02T13:22:59.821Z,13.99
2018-12-02T13:32:59.814Z,13.93
2018-12-02T13:42:59.975Z,13.88
2018-12-02T13:52:59.831Z,13.80
2018-12-02T14:02:59.810Z,13.77
2018-12-02T14:12:59.958Z,13.74
2018-12-02T14:22:59.829Z,13.78
2018-12-02T14:33:03.961Z,13.69
2018-12-02T14:42:59.772Z,13.71
2018-12-02T14:52:59.720Z,13.77
2018-12-02T15:02:59.763Z,13.82
2018-12-02T15:13:00.008Z,13.78
2018-12-02T15:22:59.755Z,13.47
2018-12-02T15:32:59.760Z,13.57
2018-12-02T15:42:59.844Z,13.61
2018-12-02T15:52:59.848Z,13.68
2018-12-02T16:02:59.842Z,13.71
2018-12-02T16:12:59.826Z,13.63
2018-12-02T16:22:59.848Z,13.59
2018-12-02T16:32:59.767Z,13.66
2018-12-02T16:43:00.373Z,13.77
2018-12-02T16:52:59.756Z,13.83
2018-12-02T17:02:59.876Z,13.75
2018-12-02T17:12:59.853Z,13.43
2018-12-02T17:22:59.868Z,13.43
2018-12-02T17:32:59.791Z,13.53
2018-12-02T17:42:59.835Z,13.37
2018-12-02T17:52:59.829Z,13.53
2018-12-02T18:02:59.851Z,13.61
2018-12-02T18:12:59.862Z,13.64
2018-12-02T18:22:59.819Z,13.62
2018-12-02T18:32:59.873Z,13.63
2018-12-02T18:42:59.786Z,13.64
2018-12-02T18:53:00.112Z,13.23
2018-12-02T19:02:59.867Z,13.36
2018-12-02T19:12:59.845Z,13.56
2018-12-02T19:23:00.047Z,13.61
2018-12-02T19:32:59.769Z,13.56
2018-12-02T19:42:59.768Z,13.58
2018-12-02T19:52:59.844Z,13.57
2018-12-02T20:02:59.820Z,13.56
2018-12-02T20:12:59.782Z,13.57
2018-12-02T20:22:59.773Z,13.64
2018-12-02T20:32:59.871Z,13.64
2018-12-02T20:42:59.852Z,13.50
2018-12-02T20:52:59.766Z,13.21
2018-12-02T21:02:59.774Z,12.99
2018-12-02T21:12:59.865Z,12.79
2018-12-02T21:22:59.793Z,12.57
2018-12-02T21:32:59.777Z,12.34
2018-12-02T21:42:59.789Z,12.26
2018-12-02T21:52:59.869Z,12.39
2018-12-02T22:02:59.760Z,12.49
2018-12-02T22:12:59.849Z,12.62
2018-12-02T22:22:59.688Z,12.51
2018-12-02T22:32:59.785Z,12.50
2018-12-02T22:42:59.789Z,12.48
2018-12-02T22:52:59.819Z,12.48
2018-12-02T23:02:59.787Z,12.50
2018-12-02T23:12:59.753Z,12.56
2018-12-02T23:22:59.817Z,12.54
2018-12-02T23:32:59.991Z,12.47
2018-12-02T23:42:59.753Z,12.39
2018-12-02T23:52:59.721Z,12.49
